Time;durP1;ratioP1;P1;durP2;ratioP2;P2;SDS_P1;SDS_P2;PMS_P1;PMS_P2;Temp;Humidity;BMP_temperature;BMP_pressure;BME280_temperature;BME280_humidity;BME280_pressure;Samples;Min_cycle;Max_cycle;Signal;HPM_P1;HPM_P2
2023/02/05 00:01:46;;;;;;;3.67;3.40;;;;;;;;;;6262581;28;20471;-78
2023/02/05 00:04:53;;;;;;;5.87;3.03;;;;;;;;;;6260242;28;20315;-77
2023/02/05 00:07:59;;;;;;;5.03;3.10;;;;;;;;;;6260853;28;20276;-78
2023/02/05 00:11:08;;;;;;;3.63;3.33;;;;;;;;;;6260940;28;20283;-78
2023/02/05 00:14:13;;;;;;;3.87;3.10;;;;;;;;;;6260511;28;20331;-78
2023/02/05 00:17:20;;;;;;;3.50;3.20;;;;;;;;;;6262364;28;20524;-77
2023/02/05 00:20:25;;;;;;;4.10;3.07;;;;;;;;;;6261679;28;20292;-78
2023/02/05 00:23:30;;;;;;;2.80;2.63;;;;;;;;;;6261783;28;20298;-77
2023/02/05 00:26:36;;;;;;;2.33;2.17;;;;;;;;;;6261882;28;20299;-78
2023/02/05 00:29:41;;;;;;;2.63;2.40;;;;;;;;;;6260530;28;20303;-78
2023/02/05 00:32:48;;;;;;;3.53;2.03;;;;;;;;;;6261521;28;20310;-78
2023/02/05 00:35:53;;;;;;;2.43;2.33;;;;;;;;;;6261426;28;20299;-77
2023/02/05 00:38:58;;;;;;;2.40;2.30;;;;;;;;;;6261162;28;20534;-77
2023/02/05 00:42:03;;;;;;;2.60;2.40;;;;;;;;;;6294591;28;20322;-78
2023/02/05 00:45:11;;;;;;;3.60;2.00;;;;;;;;;;6260769;28;20572;-79
2023/02/05 00:48:17;;;;;;;1.90;1.90;;;;;;;;;;6260807;28;20298;-77
2023/02/05 00:51:23;;;;;;;6.23;2.50;;;;;;;;;;6259693;28;20300;-77
2023/02/05 00:54:28;;;;;;;1.90;1.80;;;;;;;;;;6262062;28;20298;-78
2023/02/05 00:57:33;;;;;;;2.30;2.20;;;;;;;;;;6294208;28;20296;-78
2023/02/05 01:00:39;;;;;;;2.10;2.10;;;;;;;;;;6261452;28;20299;-79
2023/02/05 01:03:45;;;;;;;2.37;2.00;;;;;;;;;;6263079;28;20292;-77
2023/02/05 01:06:50;;;;;;;3.53;2.03;;;;;;;;;;6260971;28;20585;-78
2023/02/05 01:09:56;;;;;;;2.53;2.43;;;;;;;;;;6263488;28;20287;-77
2023/02/05 01:13:01;;;;;;;2.20;1.97;;;;;;;;;;6266873;28;20298;-77
2023/02/05 01:16:09;;;;;;;1.70;1.70;;;;;;;;;;6287758;28;20283;-76
2023/02/05 01:19:15;;;;;;;2.33;2.20;;;;;;;;;;6287585;28;20284;-77
2023/02/05 01:22:21;;;;;;;5.33;1.90;;;;;;;;;;6289057;28;20299;-75
2023/02/05 01:25:27;;;;;;;1.73;1.63;;;;;;;;;;6293719;28;20303;-76
2023/02/05 01:28:32;;;;;;;1.87;1.77;;;;;;;;;;6290364;28;20308;-78
2023/02/05 01:31:37;;;;;;;1.80;1.77;;;;;;;;;;6293180;28;20284;-77
2023/02/05 01:34:44;;;;;;;2.53;2.13;;;;;;;;;;6293857;28;20294;-77
2023/02/05 01:37:50;;;;;;;2.10;1.90;;;;;;;;;;6289643;28;20296;-78
2023/02/05 01:40:55;;;;;;;1.77;1.77;;;;;;;;;;6281463;28;20316;-78
2023/02/05 01:44:08;;;;;;;2.00;1.90;;;;;;;;;;6260195;28;20296;-78
2023/02/05 01:47:14;;;;;;;1.90;1.90;;;;;;;;;;6260310;28;20304;-78
2023/02/05 01:50:25;;;;;;;2.40;1.70;;;;;;;;;;6258518;28;20317;-79
2023/02/05 01:53:32;;;;;;;2.50;1.90;;;;;;;;;;6260044;28;20292;-77
2023/02/05 01:56:39;;;;;;;1.67;1.67;;;;;;;;;;6260797;28;20293;-78
2023/02/05 01:59:45;;;;;;;1.60;1.57;;;;;;;;;;6258959;28;20288;-77
2023/02/05 02:02:50;;;;;;;1.93;1.83;;;;;;;;;;6260740;28;20292;-77
2023/02/05 02:05:57;;;;;;;3.83;1.87;;;;;;;;;;6240974;28;20313;-77
2023/02/05 02:09:02;;;;;;;2.03;1.87;;;;;;;;;;6258549;28;20314;-78
2023/02/05 02:12:09;;;;;;;1.70;1.70;;;;;;;;;;6260687;28;20295;-77
2023/02/05 02:15:17;;;;;;;2.17;2.07;;;;;;;;;;6258478;28;20292;-77
2023/02/05 02:18:26;;;;;;;1.60;1.60;;;;;;;;;;6262665;28;20603;-76
2023/02/05 02:22:02;;;;;;;2.03;1.83;;;;;;;;;;6271330;28;20300;-77
2023/02/05 02:25:32;;;;;;;1.60;1.60;;;;;;;;;;6277526;28;20298;-77
2023/02/05 02:28:45;;;;;;;1.57;1.57;;;;;;;;;;6281849;28;20291;-77
2023/02/05 02:31:54;;;;;;;2.10;1.97;;;;;;;;;;6289535;28;20299;-78
2023/02/05 02:35:05;;;;;;;2.00;1.60;;;;;;;;;;6288278;28;20296;-77
2023/02/05 02:38:16;;;;;;;3.47;1.67;;;;;;;;;;6287626;28;20300;-78
2023/02/05 02:41:27;;;;;;;1.77;1.77;;;;;;;;;;6288523;28;20288;-77
2023/02/05 02:44:37;;;;;;;1.30;1.30;;;;;;;;;;6288080;28;20291;-78
2023/02/05 02:47:47;;;;;;;1.73;1.57;;;;;;;;;;6288158;28;20304;-78
2023/02/05 02:50:54;;;;;;;2.67;1.60;;;;;;;;;;6287963;28;20304;-78
2023/02/05 02:54:01;;;;;;;1.30;1.30;;;;;;;;;;6288684;28;20296;-78
2023/02/05 02:57:08;;;;;;;1.70;1.60;;;;;;;;;;6289308;28;20412;-77
2023/02/05 03:00:18;;;;;;;1.63;1.53;;;;;;;;;;6288571;28;20369;-78
2023/02/05 03:03:26;;;;;;;1.87;1.50;;;;;;;;;;6287105;28;20290;-77
2023/02/05 03:06:32;;;;;;;1.80;1.50;;;;;;;;;;6287497;28;20476;-78
2023/02/05 03:09:42;;;;;;;1.73;1.63;;;;;;;;;;6303362;28;20314;-78
2023/02/05 03:12:48;;;;;;;2.50;1.47;;;;;;;;;;6271890;28;20300;-78
2023/02/05 03:15:56;;;;;;;1.70;1.53;;;;;;;;;;6287009;28;20301;-78
2023/02/05 03:19:04;;;;;;;1.30;1.30;;;;;;;;;;6286857;28;20301;-79
2023/02/05 03:22:10;;;;;;;1.33;1.33;;;;;;;;;;6287400;28;20298;-78
2023/02/05 03:25:17;;;;;;;1.53;1.53;;;;;;;;;;6270417;28;20301;-78
2023/02/05 03:28:22;;;;;;;1.90;1.33;;;;;;;;;;6286420;28;20445;-77
2023/02/05 03:31:42;;;;;;;1.40;1.40;;;;;;;;;;6287243;28;20298;-78
2023/02/05 03:34:53;;;;;;;1.40;1.40;;;;;;;;;;6287766;28;20307;-77
2023/02/05 03:38:29;;;;;;;1.43;1.43;;;;;;;;;;6286142;28;20281;-78
2023/02/05 03:41:55;;;;;;;1.90;1.20;;;;;;;;;;6285654;28;20297;-78
2023/02/05 03:45:28;;;;;;;4.33;1.30;;;;;;;;;;6286245;28;20298;-78
2023/02/05 03:48:54;;;;;;;1.30;1.30;;;;;;;;;;6285815;28;20299;-78
2023/02/05 03:52:04;;;;;;;1.50;1.40;;;;;;;;;;6286404;28;20319;-78
2023/02/05 03:55:15;;;;;;;1.90;1.20;;;;;;;;;;6286397;28;20298;-78
2023/02/05 03:58:24;;;;;;;2.50;1.20;;;;;;;;;;6286228;28;20297;-78
2023/02/05 04:01:31;;;;;;;1.23;1.23;;;;;;;;;;6286259;28;20302;-78
2023/02/05 04:04:38;;;;;;;1.40;1.30;;;;;;;;;;6271585;28;20320;-76
2023/02/05 04:07:45;;;;;;;1.80;1.33;;;;;;;;;;6269223;28;20301;-80
2023/02/05 04:10:50;;;;;;;1.50;1.50;;;;;;;;;;6286310;28;20301;-77
2023/02/05 04:13:55;;;;;;;1.33;1.33;;;;;;;;;;6234840;28;20470;-79
2023/02/05 04:17:01;;;;;;;1.10;1.10;;;;;;;;;;6262501;28;20628;-77
2023/02/05 04:20:09;;;;;;;1.10;1.10;;;;;;;;;;6260408;28;20302;-78
2023/02/05 04:23:15;;;;;;;1.17;1.17;;;;;;;;;;6260526;28;20294;-79
2023/02/05 04:26:22;;;;;;;1.40;1.40;;;;;;;;;;6260827;28;20285;-77
2023/02/05 04:29:36;;;;;;;1.70;1.20;;;;;;;;;;6261425;28;20303;-79
2023/02/05 04:32:42;;;;;;;1.30;1.30;;;;;;;;;;6260652;28;20291;-78
2023/02/05 04:35:50;;;;;;;1.20;1.20;;;;;;;;;;6244358;28;20318;-78
2023/02/05 04:38:55;;;;;;;1.10;1.10;;;;;;;;;;6261449;28;20297;-77
2023/02/05 04:42:00;;;;;;;1.30;1.30;;;;;;;;;;6244052;28;20294;-77
2023/02/05 04:45:06;;;;;;;1.30;1.20;;;;;;;;;;6261013;28;20299;-78
2023/02/05 04:48:14;;;;;;;1.40;1.40;;;;;;;;;;6261001;28;20456;-78
2023/02/05 04:51:21;;;;;;;1.10;1.00;;;;;;;;;;6259036;28;20299;-78
2023/02/05 04:54:27;;;;;;;1.50;1.30;;;;;;;;;;6261120;28;20582;-77
2023/02/05 04:57:32;;;;;;;2.67;1.30;;;;;;;;;;6261524;28;20286;-78
2023/02/05 05:00:37;;;;;;;1.30;1.10;;;;;;;;;;6260576;28;20294;-78
2023/02/05 05:03:43;;;;;;;1.10;1.10;;;;;;;;;;6260607;28;20303;-79
2023/02/05 05:06:49;;;;;;;1.30;1.20;;;;;;;;;;6260474;28;20298;-78
2023/02/05 05:09:54;;;;;;;1.00;1.00;;;;;;;;;;6260322;28;20459;-78
2023/02/05 05:12:59;;;;;;;1.10;1.10;;;;;;;;;;6260316;28;20616;-78
2023/02/05 05:16:06;;;;;;;1.10;1.10;;;;;;;;;;6260693;28;20302;-77
2023/02/05 05:19:12;;;;;;;1.70;1.10;;;;;;;;;;6291191;28;20302;-78
2023/02/05 05:22:21;;;;;;;1.50;1.40;;;;;;;;;;6260639;28;20310;-78
2023/02/05 05:25:26;;;;;;;1.00;1.00;;;;;;;;;;6260505;28;20306;-77
2023/02/05 05:28:33;;;;;;;3.53;1.20;;;;;;;;;;6258498;28;20290;-78
2023/02/05 05:31:38;;;;;;;2.47;1.20;;;;;;;;;;6261359;28;20298;-78
2023/02/05 05:34:44;;;;;;;4.97;1.37;;;;;;;;;;6282935;28;20299;-78
2023/02/05 05:37:50;;;;;;;1.00;1.00;;;;;;;;;;6260515;28;20295;-78
2023/02/05 05:44:18;;;;;;;1.10;1.10;;;;;;;;;;6260542;28;20292;-77
2023/02/05 05:47:23;;;;;;;1.00;1.00;;;;;;;;;;6260721;28;20294;-78
2023/02/05 05:50:28;;;;;;;1.00;1.00;;;;;;;;;;6258725;28;20298;-78
2023/02/05 05:53:39;;;;;;;1.10;1.10;;;;;;;;;;6259973;28;20291;-77
2023/02/05 05:56:44;;;;;;;1.00;1.00;;;;;;;;;;6260199;28;20306;-77
2023/02/05 05:59:50;;;;;;;5.27;1.30;;;;;;;;;;6259669;28;20291;-78
2023/02/05 06:02:55;;;;;;;1.57;0.90;;;;;;;;;;6259416;28;20587;-77
2023/02/05 06:06:01;;;;;;;1.00;1.00;;;;;;;;;;6260015;28;20311;-77
2023/02/05 06:09:07;;;;;;;0.80;0.80;;;;;;;;;;6258252;28;20614;-78
2023/02/05 06:12:14;;;;;;;1.33;0.90;;;;;;;;;;6258519;28;20291;-78
2023/02/05 06:15:19;;;;;;;2.83;1.00;;;;;;;;;;6258634;28;20291;-78
2023/02/05 06:18:24;;;;;;;3.57;1.20;;;;;;;;;;6259455;28;20478;-77
2023/02/05 06:21:29;;;;;;;0.93;0.93;;;;;;;;;;6260373;28;20370;-77
2023/02/05 06:24:36;;;;;;;2.37;1.20;;;;;;;;;;6257963;28;20305;-78
2023/02/05 06:27:41;;;;;;;1.30;1.00;;;;;;;;;;6259547;28;20311;-78
2023/02/05 06:30:46;;;;;;;3.63;1.17;;;;;;;;;;6259717;28;20295;-79
2023/02/05 06:33:51;;;;;;;1.00;1.00;;;;;;;;;;6257891;28;20302;-78
2023/02/05 06:36:57;;;;;;;1.10;1.10;;;;;;;;;;6258678;28;20297;-77
2023/02/05 06:40:03;;;;;;;3.23;0.90;;;;;;;;;;6258329;28;20295;-79
2023/02/05 06:43:09;;;;;;;4.57;0.90;;;;;;;;;;6258897;28;20299;-78
2023/02/05 06:46:15;;;;;;;0.90;0.90;;;;;;;;;;6258577;28;20304;-78
2023/02/05 06:49:20;;;;;;;0.80;0.80;;;;;;;;;;6258498;28;20304;-78
2023/02/05 06:52:25;;;;;;;2.63;1.20;;;;;;;;;;6259368;28;20294;-78
2023/02/05 06:55:32;;;;;;;1.10;1.10;;;;;;;;;;6259389;28;20299;-78
2023/02/05 06:58:37;;;;;;;1.00;1.00;;;;;;;;;;6259007;28;20312;-78
2023/02/05 07:01:42;;;;;;;1.23;0.90;;;;;;;;;;6259552;28;20292;-78
2023/02/05 07:04:47;;;;;;;1.43;0.90;;;;;;;;;;6258208;28;20299;-79
2023/02/05 07:07:53;;;;;;;1.03;1.00;;;;;;;;;;6282584;28;20275;-79
2023/02/05 07:10:59;;;;;;;1.00;1.00;;;;;;;;;;6283952;28;20303;-78
2023/02/05 07:14:05;;;;;;;1.73;1.00;;;;;;;;;;6284648;28;20299;-78
2023/02/05 07:17:11;;;;;;;1.00;1.00;;;;;;;;;;6288217;28;20276;-78
2023/02/05 07:20:17;;;;;;;1.07;1.07;;;;;;;;;;6288414;28;20292;-78
2023/02/05 07:23:22;;;;;;;1.73;1.00;;;;;;;;;;6285562;28;20316;-79
2023/02/05 07:26:29;;;;;;;4.70;1.00;;;;;;;;;;6287954;28;20296;-79
2023/02/05 07:29:34;;;;;;;1.10;1.00;;;;;;;;;;6286769;28;20576;-78
2023/02/05 07:32:39;;;;;;;0.80;0.80;;;;;;;;;;6287188;28;20289;-78
2023/02/05 07:35:44;;;;;;;1.33;1.00;;;;;;;;;;6270830;28;20287;-78
2023/02/05 07:38:52;;;;;;;2.00;0.97;;;;;;;;;;6287799;28;20298;-78
2023/02/05 07:41:58;;;;;;;3.30;1.10;;;;;;;;;;6287948;28;20377;-79
2023/02/05 07:45:13;;;;;;;5.60;1.20;;;;;;;;;;6276286;28;20508;-78
2023/02/05 07:48:18;;;;;;;3.13;0.93;;;;;;;;;;6286232;28;20298;-78
2023/02/05 07:51:24;;;;;;;4.57;0.83;;;;;;;;;;6292581;28;20308;-78
2023/02/05 07:54:30;;;;;;;4.27;1.20;;;;;;;;;;6296452;28;20291;-78
2023/02/05 07:57:37;;;;;;;1.10;1.10;;;;;;;;;;6285980;28;20307;-80
2023/02/05 08:00:45;;;;;;;1.13;1.10;;;;;;;;;;6278952;28;20316;-78
2023/02/05 08:03:53;;;;;;;1.73;1.17;;;;;;;;;;6307686;28;20308;-78
2023/02/05 08:06:58;;;;;;;4.23;1.00;;;;;;;;;;6279155;28;20478;-78
2023/02/05 08:10:03;;;;;;;1.13;0.93;;;;;;;;;;6285638;28;20564;-78
2023/02/05 08:13:10;;;;;;;6.07;1.50;;;;;;;;;;6286950;28;20292;-78
2023/02/05 08:16:16;;;;;;;3.17;1.20;;;;;;;;;;6287274;28;20294;-78
2023/02/05 08:19:21;;;;;;;1.17;1.17;;;;;;;;;;6286993;28;20295;-79
2023/02/05 08:22:27;;;;;;;1.90;1.20;;;;;;;;;;6285886;28;20478;-78
2023/02/05 08:25:32;;;;;;;1.57;1.17;;;;;;;;;;6285502;28;20292;-78
2023/02/05 08:28:39;;;;;;;1.53;1.10;;;;;;;;;;6286430;28;20292;-79
2023/02/05 08:31:44;;;;;;;2.53;1.00;;;;;;;;;;6286919;28;20463;-79
2023/02/05 08:34:50;;;;;;;1.00;1.00;;;;;;;;;;6286572;28;20296;-80
2023/02/05 08:37:55;;;;;;;3.43;1.10;;;;;;;;;;6260710;28;20273;-79
2023/02/05 08:41:11;;;;;;;0.80;0.80;;;;;;;;;;6286397;28;20274;-77
2023/02/05 08:44:17;;;;;;;3.53;1.03;;;;;;;;;;6276193;28;20292;-79
2023/02/05 08:47:24;;;;;;;11.07;1.30;;;;;;;;;;6287755;28;20295;-77
2023/02/05 08:50:37;;;;;;;2.13;1.40;;;;;;;;;;6267625;28;20305;-78
2023/02/05 08:53:42;;;;;;;1.20;1.20;;;;;;;;;;6285546;28;20316;-77
2023/02/05 08:56:50;;;;;;;7.40;1.10;;;;;;;;;;6285150;28;20581;-79
2023/02/05 08:59:58;;;;;;;2.57;1.10;;;;;;;;;;6285896;28;20298;-78
2023/02/05 09:03:03;;;;;;;2.70;1.10;;;;;;;;;;6285503;28;20279;-78
2023/02/05 09:06:10;;;;;;;1.00;1.00;;;;;;;;;;6286781;28;20673;-77
2023/02/05 09:09:16;;;;;;;7.17;0.93;;;;;;;;;;6285698;28;20641;-80
2023/02/05 09:12:21;;;;;;;3.87;1.30;;;;;;;;;;6285286;28;20297;-79
2023/02/05 09:15:28;;;;;;;4.67;1.17;;;;;;;;;;6285749;28;20477;-79
2023/02/05 09:18:33;;;;;;;1.23;1.17;;;;;;;;;;6284272;28;20298;-79
2023/02/05 09:21:38;;;;;;;5.13;1.30;;;;;;;;;;6285860;28;20339;-79
2023/02/05 09:24:43;;;;;;;5.00;1.10;;;;;;;;;;6285168;28;20295;-77
2023/02/05 09:27:48;;;;;;;4.07;1.20;;;;;;;;;;6283837;28;20297;-79
2023/02/05 09:30:55;;;;;;;6.33;1.40;;;;;;;;;;6284586;28;20293;-79
2023/02/05 09:34:03;;;;;;;8.27;1.40;;;;;;;;;;6285319;28;20307;-79
2023/02/05 09:37:11;;;;;;;3.83;1.40;;;;;;;;;;6284849;28;20300;-78
2023/02/05 09:40:20;;;;;;;1.10;1.10;;;;;;;;;;6283812;28;20313;-79
2023/02/05 09:43:34;;;;;;;1.00;1.00;;;;;;;;;;6284827;28;20294;-79
2023/02/05 09:46:46;;;;;;;0.80;0.80;;;;;;;;;;6284566;28;20296;-78
2023/02/05 09:50:00;;;;;;;2.13;1.10;;;;;;;;;;6283770;28;20302;-80
2023/02/05 09:53:07;;;;;;;1.07;1.07;;;;;;;;;;6285090;28;20482;-78
2023/02/05 09:56:15;;;;;;;2.20;1.10;;;;;;;;;;6283915;28;20581;-79
2023/02/05 09:59:23;;;;;;;0.90;0.90;;;;;;;;;;6284367;28;20355;-77
2023/02/05 10:02:37;;;;;;;0.97;0.90;;;;;;;;;;6284638;28;20368;-77
2023/02/05 10:05:46;;;;;;;1.03;1.03;;;;;;;;;;6282709;28;20620;-79
2023/02/05 10:08:57;;;;;;;1.20;1.10;;;;;;;;;;6284379;28;20305;-80
2023/02/05 10:12:11;;;;;;;1.00;1.00;;;;;;;;;;6285536;28;20578;-81
2023/02/05 10:15:26;;;;;;;0.90;0.90;;;;;;;;;;6273834;28;20297;-79
2023/02/05 10:18:38;;;;;;;1.77;1.00;;;;;;;;;;6283996;28;20316;-77
2023/02/05 10:21:56;;;;;;;1.00;1.00;;;;;;;;;;6284256;28;20488;-78
2023/02/05 10:25:25;;;;;;;1.13;1.10;;;;;;;;;;6283910;28;20304;-78
2023/02/05 10:28:45;;;;;;;0.90;0.90;;;;;;;;;;6284441;28;20285;-77
2023/02/05 10:31:59;;;;;;;1.13;1.00;;;;;;;;;;6285003;28;20298;-77
2023/02/05 10:35:13;;;;;;;1.00;1.00;;;;;;;;;;6283777;28;20302;-77
2023/02/05 10:38:23;;;;;;;3.17;2.37;;;;;;;;;;6284229;28;20289;-78
2023/02/05 10:41:35;;;;;;;1.60;1.60;;;;;;;;;;6285552;28;20294;-77
2023/02/05 10:44:44;;;;;;;1.20;1.20;;;;;;;;;;6283481;28;20298;-79
2023/02/05 10:48:24;;;;;;;2.30;1.07;;;;;;;;;;6283768;28;20295;-78
2023/02/05 10:51:35;;;;;;;1.00;1.00;;;;;;;;;;6262307;28;20290;-78
2023/02/05 10:54:41;;;;;;;1.10;1.10;;;;;;;;;;6289293;28;20297;-79
2023/02/05 10:57:46;;;;;;;2.17;1.20;;;;;;;;;;6287621;28;20306;-79
2023/02/05 11:00:52;;;;;;;1.20;1.20;;;;;;;;;;6289500;28;20296;-79
2023/02/05 11:04:01;;;;;;;1.50;1.00;;;;;;;;;;6288593;28;20297;-78
2023/02/05 11:07:12;;;;;;;1.17;1.17;;;;;;;;;;6289330;28;20292;-78
2023/02/05 11:10:22;;;;;;;1.10;1.10;;;;;;;;;;6288108;28;20285;-79
2023/02/05 11:13:28;;;;;;;3.60;1.10;;;;;;;;;;6281204;28;20493;-77
2023/02/05 11:16:41;;;;;;;1.07;1.07;;;;;;;;;;6286559;28;20289;-79
2023/02/05 11:19:54;;;;;;;1.00;1.00;;;;;;;;;;6287013;28;20302;-78
2023/02/05 11:23:18;;;;;;;1.10;1.10;;;;;;;;;;6286204;28;20301;-77
2023/02/05 11:26:27;;;;;;;1.70;1.20;;;;;;;;;;6287167;28;20298;-76
2023/02/05 11:29:32;;;;;;;1.03;1.03;;;;;;;;;;6279317;28;20472;-77
2023/02/05 11:32:38;;;;;;;1.37;1.27;;;;;;;;;;6289817;28;20293;-79
2023/02/05 11:35:51;;;;;;;2.00;1.20;;;;;;;;;;6277186;28;20312;-80
2023/02/05 11:38:58;;;;;;;1.43;1.37;;;;;;;;;;6286645;28;20306;-77
2023/02/05 11:42:15;;;;;;;4.00;1.23;;;;;;;;;;6287995;28;20292;-78
2023/02/05 11:45:22;;;;;;;1.30;1.10;;;;;;;;;;6285670;28;20300;-77
2023/02/05 11:48:35;;;;;;;1.80;1.37;;;;;;;;;;6287012;28;20302;-79
2023/02/05 11:51:43;;;;;;;1.60;1.30;;;;;;;;;;6287860;28;20590;-78
2023/02/05 11:54:50;;;;;;;1.40;1.40;;;;;;;;;;6285433;28;20297;-78
2023/02/05 11:58:00;;;;;;;1.53;1.10;;;;;;;;;;6284620;28;20293;-78
2023/02/05 12:01:20;;;;;;;1.90;1.20;;;;;;;;;;6312526;28;20298;-79
2023/02/05 12:04:27;;;;;;;1.10;1.10;;;;;;;;;;6271816;28;20286;-79
2023/02/05 12:07:38;;;;;;;1.77;1.13;;;;;;;;;;6284984;28;20553;-78
2023/02/05 12:10:51;;;;;;;1.40;1.30;;;;;;;;;;6286271;28;20298;-78
2023/02/05 12:14:07;;;;;;;1.10;1.10;;;;;;;;;;6286367;28;20610;-79
2023/02/05 12:17:35;;;;;;;1.20;1.20;;;;;;;;;;6287129;28;20286;-78
2023/02/05 12:20:44;;;;;;;1.40;1.40;;;;;;;;;;6285269;28;20294;-79
2023/02/05 12:24:10;;;;;;;1.20;1.20;;;;;;;;;;6285096;28;20306;-77
2023/02/05 12:27:30;;;;;;;1.37;1.37;;;;;;;;;;6287106;28;20302;-77
2023/02/05 12:30:47;;;;;;;1.40;1.40;;;;;;;;;;6276342;28;20301;-79
2023/02/05 12:34:15;;;;;;;2.20;1.50;;;;;;;;;;6286434;28;20314;-80
2023/02/05 12:37:28;;;;;;;1.40;1.30;;;;;;;;;;6286567;28;20312;-77
2023/02/05 12:41:01;;;;;;;1.63;1.40;;;;;;;;;;6284404;28;20294;-77
2023/02/05 12:44:21;;;;;;;1.37;1.37;;;;;;;;;;6285119;28;20463;-77
2023/02/05 12:47:43;;;;;;;1.00;1.00;;;;;;;;;;6286450;28;20298;-75
2023/02/05 12:50:55;;;;;;;1.50;1.50;;;;;;;;;;6285104;28;20302;-76
2023/02/05 12:54:13;;;;;;;1.50;1.50;;;;;;;;;;6284614;28;20493;-79
2023/02/05 12:57:20;;;;;;;1.40;1.40;;;;;;;;;;6284920;28;20305;-77
2023/02/05 13:00:32;;;;;;;1.20;1.20;;;;;;;;;;6283827;28;20302;-78
2023/02/05 13:03:41;;;;;;;1.23;1.23;;;;;;;;;;6276861;28;20290;-78
2023/02/05 13:06:51;;;;;;;1.40;1.40;;;;;;;;;;6277453;28;20306;-77
2023/02/05 13:09:59;;;;;;;1.80;1.70;;;;;;;;;;6285095;28;20606;-75
2023/02/05 13:13:11;;;;;;;1.60;1.60;;;;;;;;;;6284397;28;20322;-77
2023/02/05 13:16:18;;;;;;;1.63;1.53;;;;;;;;;;6283847;28;20336;-77
2023/02/05 13:19:28;;;;;;;1.57;1.43;;;;;;;;;;6284263;28;20310;-78
2023/02/05 13:29:25;;;;;;;1.50;1.50;;;;;;;;;;6284596;28;20407;-78
2023/02/05 13:32:33;;;;;;;1.80;1.40;;;;;;;;;;6285618;28;20291;-78
2023/02/05 13:35:43;;;;;;;1.70;1.60;;;;;;;;;;6284520;28;20594;-79
2023/02/05 13:39:01;;;;;;;2.83;1.70;;;;;;;;;;6284839;28;20599;-79
2023/02/05 13:42:36;;;;;;;1.37;1.37;;;;;;;;;;6285283;28;20294;-78
2023/02/05 13:46:12;;;;;;;1.43;1.40;;;;;;;;;;6272210;28;20296;-80
2023/02/05 13:49:50;;;;;;;1.40;1.40;;;;;;;;;;6284632;28;20302;-79
2023/02/05 13:53:16;;;;;;;1.67;1.30;;;;;;;;;;6283702;28;20295;-78
2023/02/05 13:56:48;;;;;;;1.60;1.60;;;;;;;;;;6284974;28;20470;-79
2023/02/05 13:59:53;;;;;;;2.53;1.57;;;;;;;;;;6283005;28;20294;-77
2023/02/05 14:03:04;;;;;;;1.77;1.67;;;;;;;;;;6316387;28;20462;-79
2023/02/05 14:06:20;;;;;;;1.50;1.40;;;;;;;;;;6284225;28;20291;-79
2023/02/05 14:09:35;;;;;;;1.60;1.60;;;;;;;;;;6282173;28;20590;-79
2023/02/05 14:12:41;;;;;;;1.60;1.40;;;;;;;;;;6283505;28;20306;-79
2023/02/05 14:15:46;;;;;;;1.53;1.53;;;;;;;;;;6274372;28;20305;-79
2023/02/05 14:19:10;;;;;;;1.70;1.70;;;;;;;;;;6284825;28;20296;-80
2023/02/05 14:22:36;;;;;;;1.40;1.40;;;;;;;;;;6285036;28;20314;-80
2023/02/05 14:26:07;;;;;;;1.50;1.50;;;;;;;;;;6289365;28;20290;-80
2023/02/05 14:29:39;;;;;;;1.80;1.70;;;;;;;;;;6251993;28;20291;-78
2023/02/05 14:32:58;;;;;;;1.50;1.50;;;;;;;;;;6263140;28;20376;-79
2023/02/05 14:36:33;;;;;;;1.60;1.50;;;;;;;;;;6264225;28;20298;-79
2023/02/05 14:39:39;;;;;;;1.87;1.63;;;;;;;;;;6263846;28;20594;-80
2023/02/05 14:42:47;;;;;;;1.50;1.40;;;;;;;;;;6264100;28;20457;-80
2023/02/05 14:45:53;;;;;;;2.17;1.67;;;;;;;;;;6264166;28;20297;-79
2023/02/05 14:49:00;;;;;;;1.60;1.60;;;;;;;;;;6264103;28;20295;-79
2023/02/05 14:52:18;;;;;;;2.70;1.70;;;;;;;;;;6264153;28;20297;-79
2023/02/05 14:55:30;;;;;;;1.50;1.50;;;;;;;;;;6263639;28;20338;-78
2023/02/05 14:58:39;;;;;;;1.70;1.60;;;;;;;;;;6278894;28;20307;-79
2023/02/05 15:01:48;;;;;;;1.80;1.80;;;;;;;;;;6264216;28;20291;-79
2023/02/05 15:04:56;;;;;;;2.30;1.70;;;;;;;;;;6263049;28;20306;-79
2023/02/05 15:08:11;;;;;;;1.67;1.57;;;;;;;;;;6263496;28;20322;-80
2023/02/05 15:11:23;;;;;;;1.70;1.70;;;;;;;;;;6277608;28;20306;-80
2023/02/05 15:14:43;;;;;;;1.67;1.63;;;;;;;;;;6288215;28;20311;-79
2023/02/05 15:17:52;;;;;;;4.30;2.00;;;;;;;;;;6288147;28;20292;-80
2023/02/05 15:20:59;;;;;;;2.10;1.90;;;;;;;;;;6288145;28;20366;-78
2023/02/05 15:24:10;;;;;;;2.10;2.00;;;;;;;;;;6288219;28;20301;-81
2023/02/05 15:27:19;;;;;;;2.23;2.00;;;;;;;;;;6291409;28;20311;-79
2023/02/05 15:30:28;;;;;;;1.80;1.80;;;;;;;;;;6288843;28;20306;-77
2023/02/05 15:33:43;;;;;;;1.90;1.90;;;;;;;;;;6288105;28;20298;-76
2023/02/05 15:36:53;;;;;;;2.30;1.90;;;;;;;;;;6287713;28;20389;-79
2023/02/05 15:40:02;;;;;;;2.33;2.20;;;;;;;;;;6287933;28;20304;-81
2023/02/05 15:43:15;;;;;;;2.10;1.90;;;;;;;;;;6286059;28;20617;-79
2023/02/05 15:46:22;;;;;;;2.37;1.80;;;;;;;;;;6288246;28;20302;-80
2023/02/05 15:49:37;;;;;;;3.23;1.90;;;;;;;;;;6287623;28;20482;-78
2023/02/05 15:52:42;;;;;;;2.60;2.00;;;;;;;;;;6285814;28;20295;-78
2023/02/05 15:55:49;;;;;;;3.00;2.63;;;;;;;;;;6288179;28;20298;-79
2023/02/05 15:58:55;;;;;;;2.20;2.00;;;;;;;;;;6285272;28;20297;-78
2023/02/05 16:02:05;;;;;;;2.80;1.83;;;;;;;;;;6287829;28;20265;-79
2023/02/05 16:05:18;;;;;;;2.33;1.77;;;;;;;;;;6287697;28;20305;-79
2023/02/05 16:08:26;;;;;;;4.30;1.97;;;;;;;;;;6286048;28;20306;-78
2023/02/05 16:11:34;;;;;;;2.07;1.97;;;;;;;;;;6288505;28;20311;-80
2023/02/05 16:14:39;;;;;;;2.60;2.17;;;;;;;;;;6287315;28;20306;-81
2023/02/05 16:17:49;;;;;;;8.43;2.70;;;;;;;;;;6287385;28;20290;-80
2023/02/05 16:20:58;;;;;;;2.40;1.97;;;;;;;;;;6288317;28;20298;-79
2023/02/05 16:24:05;;;;;;;2.70;2.50;;;;;;;;;;6287013;28;20298;-79
2023/02/05 16:27:13;;;;;;;2.50;2.40;;;;;;;;;;6287400;28;20386;-79
2023/02/05 16:30:23;;;;;;;2.30;2.20;;;;;;;;;;6285156;28;20297;-78
2023/02/05 16:33:33;;;;;;;2.20;2.10;;;;;;;;;;6286726;28;20294;-78
2023/02/05 16:36:42;;;;;;;2.40;2.20;;;;;;;;;;6285616;28;20306;-80
2023/02/05 16:39:52;;;;;;;2.10;2.03;;;;;;;;;;6318327;28;20306;-79
2023/02/05 16:43:00;;;;;;;2.70;2.60;;;;;;;;;;6286800;28;20299;-79
2023/02/05 16:46:27;;;;;;;2.03;2.03;;;;;;;;;;6285604;28;20317;-79
2023/02/05 16:49:34;;;;;;;2.30;2.00;;;;;;;;;;6286558;28;20306;-78
2023/02/05 16:52:40;;;;;;;2.50;2.30;;;;;;;;;;6285252;28;20290;-79
2023/02/05 16:55:45;;;;;;;2.20;2.00;;;;;;;;;;6286955;28;20354;-79
2023/02/05 16:58:52;;;;;;;2.50;2.30;;;;;;;;;;6286937;28;20303;-80
2023/02/05 17:01:59;;;;;;;2.57;2.37;;;;;;;;;;6261662;28;20300;-80
2023/02/05 17:05:07;;;;;;;2.80;2.57;;;;;;;;;;6286125;28;20302;-80
2023/02/05 17:08:16;;;;;;;2.40;2.17;;;;;;;;;;6295778;28;20292;-81
2023/02/05 17:11:36;;;;;;;5.13;2.30;;;;;;;;;;6281326;28;20285;-79
2023/02/05 17:14:53;;;;;;;2.50;2.30;;;;;;;;;;6271323;28;20555;-79
2023/02/05 17:18:05;;;;;;;3.60;2.20;;;;;;;;;;6271961;28;20305;-80
2023/02/05 17:21:27;;;;;;;2.47;2.33;;;;;;;;;;6266114;28;20306;-78
2023/02/05 17:24:32;;;;;;;3.37;2.60;;;;;;;;;;6292678;28;20322;-79
2023/02/05 17:27:38;;;;;;;2.37;2.27;;;;;;;;;;6261206;28;20295;-79
2023/02/05 17:30:44;;;;;;;2.77;2.57;;;;;;;;;;6261180;28;20307;-79
2023/02/05 17:33:53;;;;;;;2.83;2.63;;;;;;;;;;6260434;28;20302;-80
2023/02/05 17:37:00;;;;;;;2.40;2.27;;;;;;;;;;6260629;28;20293;-79
2023/02/05 17:40:08;;;;;;;2.70;2.60;;;;;;;;;;6260171;28;20316;-79
2023/02/05 17:43:14;;;;;;;2.57;2.47;;;;;;;;;;6260281;28;20351;-80
2023/02/05 17:46:19;;;;;;;2.60;2.50;;;;;;;;;;6260564;28;20292;-82
2023/02/05 17:49:24;;;;;;;2.57;2.37;;;;;;;;;;6258620;28;20429;-79
2023/02/05 17:52:31;;;;;;;2.43;2.33;;;;;;;;;;6260372;28;20297;-79
2023/02/05 17:55:37;;;;;;;4.10;2.57;;;;;;;;;;6260223;28;20297;-80
2023/02/05 17:58:42;;;;;;;2.60;2.40;;;;;;;;;;6259901;28;20300;-79
2023/02/05 18:01:51;;;;;;;2.40;2.30;;;;;;;;;;6242292;28;20632;-79
2023/02/05 18:04:56;;;;;;;2.40;2.30;;;;;;;;;;6240960;28;20587;-78
2023/02/05 18:08:03;;;;;;;2.67;2.47;;;;;;;;;;6259746;28;20304;-80
2023/02/05 18:11:08;;;;;;;3.40;2.60;;;;;;;;;;6260083;28;20274;-81
2023/02/05 18:14:14;;;;;;;2.60;2.40;;;;;;;;;;6243431;28;20294;-82
2023/02/05 18:17:20;;;;;;;3.17;2.73;;;;;;;;;;6259892;28;20309;-79
2023/02/05 18:20:25;;;;;;;2.10;2.10;;;;;;;;;;6259135;28;20546;-80
2023/02/05 18:23:32;;;;;;;2.63;2.40;;;;;;;;;;6259563;28;20466;-80
2023/02/05 18:26:37;;;;;;;2.60;2.60;;;;;;;;;;6259804;28;20307;-80
2023/02/05 18:29:42;;;;;;;2.93;2.77;;;;;;;;;;6260091;28;20289;-81
2023/02/05 18:32:47;;;;;;;2.87;2.67;;;;;;;;;;6259706;28;20308;-80
2023/02/05 18:35:54;;;;;;;2.60;2.50;;;;;;;;;;6258688;28;20373;-79
2023/02/05 18:39:03;;;;;;;2.43;2.33;;;;;;;;;;6258860;28;20459;-79
2023/02/05 18:42:08;;;;;;;2.97;2.77;;;;;;;;;;6258277;28;20292;-79
2023/02/05 18:45:13;;;;;;;3.00;2.77;;;;;;;;;;6259203;28;20293;-79
2023/02/05 18:48:19;;;;;;;3.00;2.80;;;;;;;;;;6259114;28;20448;-79
2023/02/05 18:51:24;;;;;;;3.40;3.20;;;;;;;;;;6259580;28;20301;-79
2023/02/05 18:54:31;;;;;;;3.00;2.80;;;;;;;;;;6257676;28;20305;-79
2023/02/05 18:57:36;;;;;;;3.40;3.10;;;;;;;;;;6259427;28;20317;-80
2023/02/05 19:00:41;;;;;;;3.17;3.07;;;;;;;;;;6258625;28;20304;-76
2023/02/05 19:03:47;;;;;;;3.57;3.00;;;;;;;;;;6258812;28;20293;-78
2023/02/05 19:06:53;;;;;;;3.83;2.93;;;;;;;;;;6259316;28;20310;-77